Time;durP1;ratioP1;P1;durP2;ratioP2;P2;SDS_P1;SDS_P2;PMS_P1;PMS_P2;Temp;Humidity;BMP_temperature;BMP_pressure;BME280_temperature;BME280_humidity;BME280_pressure;Samples;Min_cycle;Max_cycle;Signal;HPM_P1;HPM_P2
2021/08/16 00:01:38;;;;;;;;;;;;;;;;;;6301151;28;20047;-71
2021/08/16 00:04:39;;;;;;;29.70;6.55;;;;;;;;;;6312145;28;20042;-72
2021/08/16 00:07:42;;;;;;;35.17;5.95;;;;;;;;;;6300712;28;20943;-71
2021/08/16 00:10:43;;;;;;;32.50;6.97;;;;;;;;;;6303352;28;20177;-71
2021/08/16 00:13:46;;;;;;;36.90;6.35;;;;;;;;;;6310341;28;20454;-71
2021/08/16 00:16:48;;;;;;;;;;;;;;;;;;6302453;28;20131;-72
2021/08/16 00:19:49;;;;;;;31.17;8.32;;;;;;;;;;6310918;28;19945;-71
2021/08/16 00:22:51;;;;;;;32.13;6.60;;;;;;;;;;6299668;28;20056;-73
2021/08/16 00:25:53;;;;;;;34.83;6.32;;;;;;;;;;6301575;28;20452;-72
2021/08/16 00:28:59;;;;;;;34.00;6.30;;;;;;;;;;6313330;28;20276;-71
2021/08/16 00:32:01;;;;;;;37.60;6.80;;;;;;;;;;6296983;28;20044;-73
2021/08/16 00:35:02;;;;;;;32.42;7.55;;;;;;;;;;6312134;28;20059;-71
2021/08/16 00:38:04;;;;;;;38.25;7.30;;;;;;;;;;6277456;28;20170;-71
2021/08/16 00:41:06;;;;;;;30.63;6.97;;;;;;;;;;6278656;28;20044;-74
2021/08/16 00:44:09;;;;;;;35.42;6.32;;;;;;;;;;6288574;28;21002;-71
2021/08/16 00:47:11;;;;;;;34.10;6.75;;;;;;;;;;6272500;28;20037;-71
2021/08/16 00:50:14;;;;;;;28.67;5.88;;;;;;;;;;6279911;28;20044;-74
2021/08/16 00:53:16;;;;;;;31.42;6.60;;;;;;;;;;6282661;28;20125;-71
2021/08/16 00:56:18;;;;;;;43.40;7.47;;;;;;;;;;6282305;28;20135;-73
2021/08/16 00:59:21;;;;;;;37.33;6.10;;;;;;;;;;6304328;28;20136;-71
2021/08/16 01:02:23;;;;;;;34.30;7.43;;;;;;;;;;6304554;28;20131;-71
2021/08/16 01:05:24;;;;;;;33.78;6.05;;;;;;;;;;6303615;28;20661;-74
2021/08/16 01:08:27;;;;;;;35.42;5.97;;;;;;;;;;6301986;28;20403;-71
2021/08/16 01:11:29;;;;;;;33.80;6.15;;;;;;;;;;6300229;28;20372;-72
2021/08/16 01:14:32;;;;;;;30.00;6.10;;;;;;;;;;6311059;28;20140;-71
2021/08/16 01:17:34;;;;;;;35.35;7.65;;;;;;;;;;6298617;28;20157;-73
2021/08/16 01:20:35;;;;;;;30.17;6.90;;;;;;;;;;6298818;28;20116;-72
2021/08/16 01:23:39;;;;;;;34.83;6.00;;;;;;;;;;6309323;28;20109;-72
2021/08/16 01:26:41;;;;;;;37.72;6.63;;;;;;;;;;6306077;28;20112;-71
2021/08/16 01:29:43;;;;;;;29.25;7.03;;;;;;;;;;6303594;27;20482;-71
2021/08/16 01:32:45;;;;;;;37.10;6.55;;;;;;;;;;6310127;28;20073;-75
2021/08/16 01:35:47;;;;;;;32.83;6.90;;;;;;;;;;6300095;28;20422;-71
2021/08/16 01:38:48;;;;;;;41.10;6.75;;;;;;;;;;6312850;28;20540;-71
2021/08/16 01:41:52;;;;;;;27.13;6.13;;;;;;;;;;6278144;28;20122;-71
2021/08/16 01:44:53;;;;;;;31.98;6.47;;;;;;;;;;6306553;28;20040;-75
2021/08/16 01:47:55;;;;;;;29.30;6.63;;;;;;;;;;6295421;28;20073;-74
2021/08/16 01:50:56;;;;;;;37.72;7.50;;;;;;;;;;6274885;28;20041;-72
2021/08/16 01:53:58;;;;;;;41.60;6.88;;;;;;;;;;6283854;28;20158;-72
2021/08/16 01:57:01;;;;;;;29.92;6.53;;;;;;;;;;6273893;28;20048;-71
2021/08/16 02:00:04;;;;;;;30.10;5.65;;;;;;;;;;6285518;28;20265;-72
2021/08/16 02:03:05;;;;;;;28.00;6.68;;;;;;;;;;6272135;28;20485;-71
2021/08/16 02:06:07;;;;;;;29.63;6.97;;;;;;;;;;6283179;28;20499;-73
2021/08/16 02:09:09;;;;;;;29.25;5.82;;;;;;;;;;6294812;28;20135;-72
2021/08/16 02:12:12;;;;;;;28.48;6.22;;;;;;;;;;6275912;28;20135;-71
2021/08/16 02:15:13;;;;;;;39.17;6.43;;;;;;;;;;6272071;28;20131;-73
2021/08/16 02:18:15;;;;;;;27.08;5.72;;;;;;;;;;6275456;28;20534;-71
2021/08/16 02:21:17;;;;;;;36.78;7.38;;;;;;;;;;6276386;28;20553;-71
2021/08/16 02:24:18;;;;;;;35.08;6.45;;;;;;;;;;6309446;28;20190;-71
2021/08/16 02:27:21;;;;;;;32.95;7.35;;;;;;;;;;6300306;28;20463;-72
2021/08/16 02:30:23;;;;;;;;;;;;;;;;;;6304463;28;20055;-75
2021/08/16 02:33:24;;;;;;;30.92;6.50;;;;;;;;;;6299591;28;19924;-74
2021/08/16 02:36:26;;;;;;;28.75;6.18;;;;;;;;;;6300707;28;20154;-71
2021/08/16 02:39:27;;;;;;;41.83;6.82;;;;;;;;;;6310159;28;20043;-71
2021/08/16 02:42:30;;;;;;;39.38;7.90;;;;;;;;;;6305444;28;20096;-72
2021/08/16 02:45:32;;;;;;;31.13;6.38;;;;;;;;;;6308696;28;20055;-74
2021/08/16 02:48:34;;;;;;;29.00;6.93;;;;;;;;;;6309169;28;20124;-71
2021/08/16 02:51:35;;;;;;;34.72;6.20;;;;;;;;;;6305191;28;20055;-72
2021/08/16 02:54:37;;;;;;;32.92;6.28;;;;;;;;;;6315382;28;20393;-71
2021/08/16 02:57:40;;;;;;;28.95;6.88;;;;;;;;;;6305184;28;20054;-71
2021/08/16 03:00:42;;;;;;;34.88;7.05;;;;;;;;;;6304638;28;20178;-71
2021/08/16 03:03:44;;;;;;;32.00;6.33;;;;;;;;;;6308915;28;20100;-73
2021/08/16 03:06:45;;;;;;;35.70;7.05;;;;;;;;;;6305338;28;20677;-75
2021/08/16 03:09:47;;;;;;;40.33;6.68;;;;;;;;;;6314756;28;20150;-71
2021/08/16 03:12:50;;;;;;;32.13;5.68;;;;;;;;;;6306161;28;20036;-71
2021/08/16 03:15:51;;;;;;;;;;;;;;;;;;6302449;28;20039;-71
2021/08/16 03:18:53;;;;;;;34.22;6.07;;;;;;;;;;6309678;28;19920;-71
2021/08/16 03:21:54;;;;;;;33.38;6.72;;;;;;;;;;6305245;28;20055;-72
2021/08/16 03:24:56;;;;;;;32.63;5.70;;;;;;;;;;6311778;28;20105;-72
2021/08/16 03:27:59;;;;;;;28.75;5.80;;;;;;;;;;6306840;28;20058;-72
2021/08/16 03:31:00;;;;;;;34.00;6.10;;;;;;;;;;6299128;28;20044;-73
2021/08/16 03:34:02;;;;;;;33.85;7.07;;;;;;;;;;6307895;28;20048;-71
2021/08/16 03:37:04;;;;;;;31.63;6.65;;;;;;;;;;6305569;28;20475;-71
2021/08/16 03:40:07;;;;;;;29.83;5.10;;;;;;;;;;6311086;28;20150;-73
2021/08/16 03:43:10;;;;;;;36.45;6.75;;;;;;;;;;6309607;28;20104;-71
2021/08/16 03:46:12;;;;;;;31.13;6.40;;;;;;;;;;6302309;28;20048;-75
2021/08/16 03:49:14;;;;;;;26.77;7.68;;;;;;;;;;6310783;28;20518;-74
2021/08/16 03:52:15;;;;;;;27.08;5.80;;;;;;;;;;6305162;28;20357;-72
2021/08/16 03:55:17;;;;;;;28.08;6.13;;;;;;;;;;6306714;28;20085;-75
2021/08/16 03:58:20;;;;;;;31.23;7.43;;;;;;;;;;6311543;28;20044;-72
2021/08/16 04:01:21;;;;;;;36.55;6.88;;;;;;;;;;6298124;28;20151;-71
2021/08/16 04:04:23;;;;;;;37.58;7.45;;;;;;;;;;6310157;28;20066;-74
2021/08/16 04:07:24;;;;;;;32.58;6.28;;;;;;;;;;6302263;28;20085;-75
2021/08/16 04:10:26;;;;;;;29.60;6.45;;;;;;;;;;6307351;28;20093;-75
2021/08/16 04:13:29;;;;;;;36.65;6.38;;;;;;;;;;6312673;28;20044;-71
2021/08/16 04:16:31;;;;;;;29.20;5.88;;;;;;;;;;6299019;28;20193;-75
2021/08/16 04:19:32;;;;;;;37.78;6.25;;;;;;;;;;6309253;28;20051;-71
2021/08/16 04:22:34;;;;;;;25.50;5.95;;;;;;;;;;6303588;28;20392;-71
2021/08/16 04:25:36;;;;;;;25.25;6.13;;;;;;;;;;6304838;28;20172;-71
2021/08/16 04:28:39;;;;;;;27.10;6.65;;;;;;;;;;6314301;28;20189;-71
2021/08/16 04:31:40;;;;;;;;;;;;;;;;;;6299210;28;20052;-74
2021/08/16 04:34:42;;;;;;;32.78;6.32;;;;;;;;;;6311505;28;20062;-72
2021/08/16 04:37:43;;;;;;;27.23;6.07;;;;;;;;;;6301020;28;20032;-71
2021/08/16 04:40:45;;;;;;;30.77;6.65;;;;;;;;;;6307633;28;20127;-71
2021/08/16 04:43:48;;;;;;;28.55;7.22;;;;;;;;;;6313952;28;20189;-72
2021/08/16 04:46:50;;;;;;;26.58;6.65;;;;;;;;;;6299238;28;20051;-71
2021/08/16 04:49:54;;;;;;;29.65;6.25;;;;;;;;;;6311685;28;20052;-71
2021/08/16 04:52:55;;;;;;;37.28;7.00;;;;;;;;;;6302758;28;20404;-72
2021/08/16 04:55:57;;;;;;;29.42;7.18;;;;;;;;;;6305279;28;20126;-71
2021/08/16 04:59:00;;;;;;;25.65;6.45;;;;;;;;;;6312366;28;20085;-71
2021/08/16 05:02:01;;;;;;;;;;;;;;;;;;6302479;28;20051;-71
2021/08/16 05:05:09;;;;;;;39.83;7.05;;;;;;;;;;6310257;28;20430;-71
2021/08/16 05:08:10;;;;;;;26.13;6.68;;;;;;;;;;6312745;28;20755;-71
2021/08/16 05:11:12;;;;;;;37.47;6.63;;;;;;;;;;6307029;28;20040;-71
2021/08/16 05:14:15;;;;;;;31.85;6.32;;;;;;;;;;6311266;28;20048;-74
2021/08/16 05:17:17;;;;;;;34.85;6.25;;;;;;;;;;6296768;28;20047;-72
2021/08/16 05:20:20;;;;;;;25.02;5.80;;;;;;;;;;6304444;28;20047;-71
2021/08/16 05:23:21;;;;;;;37.40;7.15;;;;;;;;;;6306466;28;20779;-71
2021/08/16 05:26:23;;;;;;;30.23;6.78;;;;;;;;;;6303005;28;20139;-71
2021/08/16 05:29:26;;;;;;;34.20;7.93;;;;;;;;;;6314270;28;20124;-71
2021/08/16 05:32:27;;;;;;;28.77;6.32;;;;;;;;;;6300895;28;20051;-73
2021/08/16 05:35:29;;;;;;;29.00;6.68;;;;;;;;;;6301439;28;20120;-74
2021/08/16 05:38:31;;;;;;;26.00;6.38;;;;;;;;;;6308551;28;20671;-71
2021/08/16 05:41:35;;;;;;;29.10;6.53;;;;;;;;;;6302691;28;20391;-72
2021/08/16 05:44:38;;;;;;;27.63;6.95;;;;;;;;;;6310527;28;20048;-74
2021/08/16 05:47:40;;;;;;;28.33;8.10;;;;;;;;;;6298561;28;20093;-71
2021/08/16 05:50:41;;;;;;;30.40;7.78;;;;;;;;;;6300503;28;20044;-72
2021/08/16 05:53:43;;;;;;;27.08;6.57;;;;;;;;;;6301591;28;20178;-71
2021/08/16 05:56:44;;;;;;;27.27;6.32;;;;;;;;;;6301886;28;20127;-71
2021/08/16 05:59:47;;;;;;;27.15;7.10;;;;;;;;;;6311337;28;20081;-72
2021/08/16 06:02:49;;;;;;;24.02;5.97;;;;;;;;;;6295900;28;20514;-71
2021/08/16 06:05:51;;;;;;;29.02;6.55;;;;;;;;;;6297697;28;20247;-73
2021/08/16 06:08:52;;;;;;;27.25;6.90;;;;;;;;;;6310795;28;20052;-72
2021/08/16 06:11:54;;;;;;;30.42;6.82;;;;;;;;;;6302367;28;20100;-71
2021/08/16 06:14:57;;;;;;;29.65;8.00;;;;;;;;;;6312068;28;20188;-73
2021/08/16 06:17:58;;;;;;;26.38;5.97;;;;;;;;;;6276483;28;20127;-74
2021/08/16 06:21:00;;;;;;;26.60;7.63;;;;;;;;;;6275755;28;20189;-71
2021/08/16 06:24:02;;;;;;;26.00;6.90;;;;;;;;;;6284674;28;20052;-73
2021/08/16 06:27:05;;;;;;;24.15;6.55;;;;;;;;;;6292554;28;20052;-73
2021/08/16 06:30:09;;;;;;;33.55;8.50;;;;;;;;;;6308418;28;20449;-74
2021/08/16 06:33:11;;;;;;;26.55;7.25;;;;;;;;;;6306294;28;20169;-71
2021/08/16 06:36:12;;;;;;;32.95;6.40;;;;;;;;;;6301997;28;20040;-71
2021/08/16 06:39:18;;;;;;;25.15;6.57;;;;;;;;;;6312971;28;20108;-71
2021/08/16 06:42:20;;;;;;;23.10;6.78;;;;;;;;;;6306400;28;20048;-74
2021/08/16 06:45:23;;;;;;;24.48;6.82;;;;;;;;;;6311775;28;20051;-74
2021/08/16 06:48:24;;;;;;;;;;;;;;;;;;6307991;28;20218;-71
2021/08/16 06:51:26;;;;;;;26.63;6.80;;;;;;;;;;6301089;28;20092;-71
2021/08/16 06:54:28;;;;;;;35.67;6.93;;;;;;;;;;6314476;28;20044;-71
2021/08/16 06:57:29;;;;;;;24.80;6.97;;;;;;;;;;6308700;28;20047;-71
2021/08/16 07:00:33;;;;;;;28.25;6.80;;;;;;;;;;6305744;28;20037;-74
2021/08/16 07:03:34;;;;;;;17.42;7.13;;;;;;;;;;6311496;28;20044;-71
2021/08/16 07:06:36;;;;;;;13.32;7.60;;;;;;;;;;6306721;28;20127;-71
2021/08/16 07:09:38;;;;;;;14.35;7.07;;;;;;;;;;6311583;28;20128;-71
2021/08/16 07:12:39;;;;;;;12.63;7.13;;;;;;;;;;6293240;28;20090;-71
2021/08/16 07:15:42;;;;;;;13.77;7.40;;;;;;;;;;6275173;28;20074;-72
2021/08/16 07:18:44;;;;;;;13.18;6.72;;;;;;;;;;6283285;28;20638;-71
2021/08/16 07:21:46;;;;;;;14.45;7.38;;;;;;;;;;6278658;28;20496;-71
2021/08/16 07:24:48;;;;;;;11.25;7.45;;;;;;;;;;6307883;28;20143;-72
2021/08/16 07:27:49;;;;;;;12.20;7.10;;;;;;;;;;6304188;28;20181;-71
2021/08/16 07:30:52;;;;;;;10.77;7.38;;;;;;;;;;6305207;28;20392;-71
2021/08/16 07:33:53;;;;;;;;;;;;;;;;;;6310965;28;20133;-72
2021/08/16 07:36:55;;;;;;;15.30;7.82;;;;;;;;;;6308128;28;20322;-71
2021/08/16 07:39:57;;;;;;;16.40;9.27;;;;;;;;;;6316246;28;20046;-72
2021/08/16 07:42:58;;;;;;;12.57;7.35;;;;;;;;;;6311967;28;20411;-72
2021/08/16 07:46:03;;;;;;;11.65;7.38;;;;;;;;;;6310712;28;21039;-72
2021/08/16 07:49:05;;;;;;;12.82;8.80;;;;;;;;;;6325972;28;20055;-69
2021/08/16 07:52:07;;;;;;;12.27;8.60;;;;;;;;;;6320489;28;20102;-70
2021/08/16 07:55:09;;;;;;;9.90;8.00;;;;;;;;;;6314213;28;20522;-74
2021/08/16 07:58:11;;;;;;;12.55;7.50;;;;;;;;;;6313952;28;20186;-68
2021/08/16 08:01:14;;;;;;;9.07;7.05;;;;;;;;;;6306228;28;20123;-71
2021/08/16 08:04:15;;;;;;;9.65;7.47;;;;;;;;;;6322063;28;20059;-70
2021/08/16 08:07:17;;;;;;;8.13;7.22;;;;;;;;;;6314163;28;20126;-72
2021/08/16 08:10:20;;;;;;;10.73;7.88;;;;;;;;;;6319349;28;20043;-73
2021/08/16 08:13:22;;;;;;;14.60;8.90;;;;;;;;;;6320088;28;20044;-71
2021/08/16 08:16:25;;;;;;;11.38;9.10;;;;;;;;;;6310907;28;20189;-70
2021/08/16 08:19:26;;;;;;;13.13;8.80;;;;;;;;;;6314112;28;20063;-71
2021/08/16 08:22:28;;;;;;;11.68;8.50;;;;;;;;;;6312665;28;20074;-71
2021/08/16 08:25:30;;;;;;;15.05;8.65;;;;;;;;;;6308508;28;20052;-72
2021/08/16 08:28:31;;;;;;;10.18;9.13;;;;;;;;;;6312522;28;20097;-72
2021/08/16 08:31:37;;;;;;;11.87;8.93;;;;;;;;;;6305486;28;20134;-72
2021/08/16 08:34:39;;;;;;;14.48;8.63;;;;;;;;;;6309755;28;20045;-71
2021/08/16 08:37:40;;;;;;;11.20;9.13;;;;;;;;;;6306248;28;20134;-71
2021/08/16 08:40:43;;;;;;;15.38;9.32;;;;;;;;;;6303483;28;20175;-71
2021/08/16 08:43:45;;;;;;;;;;;;;;;;;;6312734;28;20503;-71
2021/08/16 08:46:48;;;;;;;15.07;10.68;;;;;;;;;;6300497;28;19928;-71
2021/08/16 08:49:50;;;;;;;13.82;9.80;;;;;;;;;;6309709;28;20051;-71
2021/08/16 08:52:53;;;;;;;11.23;8.33;;;;;;;;;;6305335;28;20043;-71
2021/08/16 08:55:54;;;;;;;12.07;9.25;;;;;;;;;;6304853;28;20139;-71
2021/08/16 08:58:56;;;;;;;11.53;9.07;;;;;;;;;;6314581;28;20089;-69
2021/08/16 09:02:00;;;;;;;13.52;8.95;;;;;;;;;;6304922;28;20047;-74
2021/08/16 09:05:03;;;;;;;11.43;9.35;;;;;;;;;;6313562;28;20044;-72
2021/08/16 09:08:05;;;;;;;14.63;7.88;;;;;;;;;;6308610;28;20083;-73
2021/08/16 09:11:08;;;;;;;11.43;8.90;;;;;;;;;;6291331;28;20048;-72
2021/08/16 09:14:10;;;;;;;12.93;8.68;;;;;;;;;;6287605;28;20040;-73
2021/08/16 09:17:13;;;;;;;14.30;9.57;;;;;;;;;;6268814;28;20139;-73
2021/08/16 09:20:16;;;;;;;8.82;7.85;;;;;;;;;;6276479;28;20596;-75
2021/08/16 09:23:18;;;;;;;12.20;8.85;;;;;;;;;;6298308;28;20108;-74
2021/08/16 09:26:25;;;;;;;11.10;8.23;;;;;;;;;;6302815;28;20399;-72
2021/08/16 09:29:26;;;;;;;12.38;7.75;;;;;;;;;;6311870;28;20125;-73
2021/08/16 09:32:34;;;;;;;10.23;7.35;;;;;;;;;;6299175;28;20040;-74
2021/08/16 09:35:36;;;;;;;11.60;7.55;;;;;;;;;;6297636;28;20147;-73
2021/08/16 09:38:38;;;;;;;10.32;7.60;;;;;;;;;;6311908;28;20126;-73
2021/08/16 09:41:40;;;;;;;12.02;8.30;;;;;;;;;;6308329;28;20063;-73
2021/08/16 09:44:48;;;;;;;8.95;7.20;;;;;;;;;;6313791;28;20073;-73
2021/08/16 09:47:56;;;;;;;9.55;7.47;;;;;;;;;;6299604;28;20052;-73
2021/08/16 09:50:57;;;;;;;9.90;7.63;;;;;;;;;;6301785;28;20044;-73
2021/08/16 09:54:00;;;;;;;9.63;8.05;;;;;;;;;;6310048;28;20043;-73
2021/08/16 09:57:02;;;;;;;9.27;7.68;;;;;;;;;;6305813;28;20182;-74
2021/08/16 10:00:04;;;;;;;;;;;;;;;;;;6310939;28;20054;-74
2021/08/16 10:03:08;;;;;;;11.65;8.45;;;;;;;;;;6298245;28;20009;-73
2021/08/16 10:06:10;;;;;;;12.52;8.82;;;;;;;;;;6301206;28;20048;-73
2021/08/16 10:09:11;;;;;;;;;;;;;;;;;;6312635;28;20073;-73
2021/08/16 10:12:13;;;;;;;12.82;8.73;;;;;;;;;;6305114;28;19928;-73
2021/08/16 10:15:15;;;;;;;9.85;8.00;;;;;;;;;;6309426;28;20052;-74
2021/08/16 10:18:20;;;;;;;12.23;7.65;;;;;;;;;;6302788;28;20157;-72
2021/08/16 10:21:22;;;;;;;10.95;8.10;;;;;;;;;;6299611;28;20041;-74
2021/08/16 10:24:27;;;;;;;12.77;7.30;;;;;;;;;;6310349;28;20135;-73
2021/08/16 10:27:31;;;;;;;11.10;6.90;;;;;;;;;;6302802;28;20040;-73
2021/08/16 10:30:33;;;;;;;14.05;7.80;;;;;;;;;;6305887;28;20040;-74
2021/08/16 10:33:44;;;;;;;12.38;7.88;;;;;;;;;;6300805;28;20146;-74
2021/08/16 10:36:55;;;;;;;8.45;6.63;;;;;;;;;;6301676;28;20075;-73
2021/08/16 10:39:58;;;;;;;8.90;7.30;;;;;;;;;;6308700;28;20052;-73
2021/08/16 10:43:08;;;;;;;8.40;7.22;;;;;;;;;;6303106;28;20532;-73
2021/08/16 10:46:21;;;;;;;10.50;6.93;;;;;;;;;;6297411;28;20070;-73
2021/08/16 10:49:31;;;;;;;9.48;7.20;;;;;;;;;;6306835;28;20580;-73
2021/08/16 10:52:33;;;;;;;11.57;7.70;;;;;;;;;;6300258;28;20044;-73
2021/08/16 10:55:39;;;;;;;9.95;7.57;;;;;;;;;;6302059;28;20068;-73
2021/08/16 10:58:40;;;;;;;9.18;7.95;;;;;;;;;;6311324;28;20048;-73
2021/08/16 11:01:45;;;;;;;9.13;7.53;;;;;;;;;;6297542;28;20130;-73
2021/08/16 11:04:51;;;;;;;6.93;6.22;;;;;;;;;;6313658;28;20644;-73
2021/08/16 11:07:53;;;;;;;13.77;7.00;;;;;;;;;;6304055;28;20078;-73
2021/08/16 11:10:54;;;;;;;13.10;7.38;;;;;;;;;;6307294;28;20043;-72
2021/08/16 11:14:06;;;;;;;11.43;7.65;;;;;;;;;;6316025;28;20124;-72
2021/08/16 11:17:08;;;;;;;8.15;7.07;;;;;;;;;;6302542;28;20040;-75
2021/08/16 11:20:15;;;;;;;;;;;;;;;;;;6307891;28;20151;-73
2021/08/16 11:23:21;;;;;;;9.35;7.95;;;;;;;;;;6308576;28;20084;-73
2021/08/16 11:26:23;;;;;;;9.65;7.30;;;;;;;;;;6306204;28;20067;-72
2021/08/16 11:29:25;;;;;;;10.23;7.55;;;;;;;;;;6316337;28;20100;-73
2021/08/16 11:32:28;;;;;;;8.20;6.60;;;;;;;;;;6298086;28;20548;-73
2021/08/16 11:35:31;;;;;;;8.43;6.70;;;;;;;;;;6302807;28;20040;-74
2021/08/16 11:38:33;;;;;;;12.38;7.00;;;;;;;;;;6315827;28;20112;-73
2021/08/16 11:41:35;;;;;;;9.07;6.53;;;;;;;;;;6305941;28;20045;-73
2021/08/16 11:44:36;;;;;;;8.80;7.05;;;;;;;;;;6315707;28;20126;-73
2021/08/16 11:47:39;;;;;;;8.27;6.72;;;;;;;;;;6294439;28;20814;-73
2021/08/16 11:50:42;;;;;;;12.43;7.40;;;;;;;;;;6310189;28;20145;-74
2021/08/16 11:53:45;;;;;;;11.10;7.35;;;;;;;;;;6315856;28;20088;-74
2021/08/16 11:56:53;;;;;;;8.57;6.75;;;;;;;;;;6299314;28;20529;-74
2021/08/16 11:59:56;;;;;;;11.50;7.03;;;;;;;;;;6290253;28;20052;-74
2021/08/16 12:02:59;;;;;;;9.68;7.53;;;;;;;;;;6276935;28;20618;-73
2021/08/16 12:06:02;;;;;;;11.82;7.72;;;;;;;;;;6286189;28;20056;-73
2021/08/16 12:09:05;;;;;;;11.77;8.40;;;;;;;;;;6302229;28;20040;-73
2021/08/16 12:12:08;;;;;;;12.10;6.80;;;;;;;;;;6305958;28;20048;-73
2021/08/16 12:15:15;;;;;;;10.13;6.30;;;;;;;;;;6332075;28;20076;-77
2021/08/16 12:18:16;;;;;;;13.20;8.68;;;;;;;;;;6316292;28;20032;-73
2021/08/16 12:21:23;;;;;;;13.88;7.80;;;;;;;;;;6321433;28;20079;-73
2021/08/16 12:24:24;;;;;;;11.32;7.78;;;;;;;;;;6328694;28;20585;-73
2021/08/16 12:27:28;;;;;;;16.52;7.85;;;;;;;;;;6321104;28;20119;-75
2021/08/16 12:30:31;;;;;;;12.77;8.23;;;;;;;;;;6315065;28;20144;-78
2021/08/16 12:33:32;;;;;;;18.48;8.77;;;;;;;;;;6307243;28;20040;-73
2021/08/16 12:36:36;;;;;;;12.17;8.00;;;;;;;;;;6295558;28;20052;-72
2021/08/16 12:39:38;;;;;;;16.40;8.57;;;;;;;;;;6295551;28;20462;-73
2021/08/16 12:42:40;;;;;;;21.80;8.03;;;;;;;;;;6303425;28;20173;-73
2021/08/16 12:45:41;;;;;;;14.73;8.20;;;;;;;;;;6279570;28;20469;-74
2021/08/16 12:48:45;;;;;;;12.00;7.60;;;;;;;;;;6301500;28;20397;-73
2021/08/16 12:51:48;;;;;;;21.48;8.00;;;;;;;;;;6279849;28;20127;-73
2021/08/16 12:54:50;;;;;;;18.02;7.88;;;;;;;;;;6307287;28;20054;-73
2021/08/16 12:57:51;;;;;;;18.75;7.38;;;;;;;;;;6287684;28;20128;-73
2021/08/16 13:00:53;;;;;;;20.23;7.55;;;;;;;;;;6298398;28;20472;-73
2021/08/16 13:03:55;;;;;;;15.68;6.45;;;;;;;;;;6291926;28;20178;-74
2021/08/16 13:06:58;;;;;;;21.75;7.22;;;;;;;;;;6286137;28;20087;-73
2021/08/16 13:09:59;;;;;;;19.02;8.27;;;;;;;;;;6291177;28;20210;-72
2021/08/16 13:13:01;;;;;;;20.33;7.20;;;;;;;;;;6285535;28;20049;-72
2021/08/16 13:16:02;;;;;;;15.20;7.60;;;;;;;;;;6298141;28;20539;-75
2021/08/16 13:19:04;;;;;;;19.60;7.85;;;;;;;;;;6289614;28;20048;-74
2021/08/16 13:22:07;;;;;;;16.05;6.07;;;;;;;;;;6284043;28;20053;-74
2021/08/16 13:25:09;;;;;;;20.15;6.15;;;;;;;;;;6289430;28;20098;-76
2021/08/16 13:28:10;;;;;;;16.52;6.45;;;;;;;;;;6283562;28;20048;-74
2021/08/16 13:31:12;;;;;;;;;;;;;;;;;;6279853;28;20040;-73
2021/08/16 13:34:13;;;;;;;18.30;5.63;;;;;;;;;;6277916;28;20433;-72
2021/08/16 13:37:16;;;;;;;22.65;6.45;;;;;;;;;;6278839;28;20187;-72
2021/08/16 13:40:18;;;;;;;20.17;6.05;;;;;;;;;;6284079;28;20040;-74
2021/08/16 13:43:20;;;;;;;22.23;6.05;;;;;;;;;;6288800;28;20048;-73
2021/08/16 13:46:21;;;;;;;16.05;6.45;;;;;;;;;;6277504;28;20051;-72
2021/08/16 14:00:03;;;;;;;18.65;5.70;;;;;;;;;;6294934;27;20615;-75
2021/08/16 14:03:05;;;;;;;14.88;5.30;;;;;;;;;;6293527;28;20147;-72
2021/08/16 14:06:06;;;;;;;21.85;6.47;;;;;;;;;;6298441;28;20187;-73
2021/08/16 14:09:09;;;;;;;20.85;6.03;;;;;;;;;;6308544;28;20074;-72
2021/08/16 14:12:11;;;;;;;20.73;5.28;;;;;;;;;;6239088;28;20045;-71
2021/08/16 14:15:14;;;;;;;17.40;5.78;;;;;;;;;;6257445;28;20128;-73
2021/08/16 14:18:16;;;;;;;14.63;5.82;;;;;;;;;;6245192;28;20087;-73
2021/08/16 14:21:17;;;;;;;16.63;5.78;;;;;;;;;;6292348;28;20549;-73
2021/08/16 14:24:19;;;;;;;20.70;6.18;;;;;;;;;;6317533;28;20044;-72
2021/08/16 14:27:22;;;;;;;21.25;7.18;;;;;;;;;;6300063;28;20238;-73
2021/08/16 14:30:25;;;;;;;21.38;5.68;;;;;;;;;;6307888;28;20043;-76
2021/08/16 14:33:26;;;;;;;16.52;5.90;;;;;;;;;;6307514;28;20052;-72
2021/08/16 14:36:28;;;;;;;19.35;6.13;;;;;;;;;;6298074;28;20118;-74
2021/08/16 14:39:30;;;;;;;16.73;5.63;;;;;;;;;;6310268;28;20108;-73
2021/08/16 14:42:31;;;;;;;15.20;5.10;;;;;;;;;;6301229;28;20139;-74
2021/08/16 14:45:34;;;;;;;16.95;5.78;;;;;;;;;;6294856;28;20134;-77
2021/08/16 14:48:36;;;;;;;20.35;5.30;;;;;;;;;;6291730;28;20127;-73
2021/08/16 14:51:37;;;;;;;16.42;5.43;;;;;;;;;;6291167;28;20066;-73
2021/08/16 14:54:39;;;;;;;18.95;5.95;;;;;;;;;;6294411;28;20044;-73
2021/08/16 14:57:41;;;;;;;21.13;6.05;;;;;;;;;;6296799;28;20403;-71
2021/08/16 15:00:44;;;;;;;16.73;5.40;;;;;;;;;;6315642;28;20048;-75
2021/08/16 15:03:46;;;;;;;13.77;5.53;;;;;;;;;;6323671;28;20040;-72
2021/08/16 15:06:47;;;;;;;17.88;5.10;;;;;;;;;;6317333;28;20507;-73
2021/08/16 15:09:49;;;;;;;18.70;6.40;;;;;;;;;;6314440;28;20066;-73
2021/08/16 15:12:50;;;;;;;15.70;5.37;;;;;;;;;;6300446;28;20074;-73
2021/08/16 15:15:54;;;;;;;15.63;5.33;;;;;;;;;;6286332;28;20459;-74
2021/08/16 15:18:56;;;;;;;21.10;5.50;;;;;;;;;;6281154;28;20059;-79
2021/08/16 15:21:57;;;;;;;17.92;5.88;;;;;;;;;;6271321;28;20496;-72
2021/08/16 15:24:59;;;;;;;12.95;4.78;;;;;;;;;;6281747;28;20134;-73
2021/08/16 15:28:00;;;;;;;19.00;6.38;;;;;;;;;;6275372;28;20051;-75
2021/08/16 15:31:03;;;;;;;23.42;6.53;;;;;;;;;;6273385;28;20040;-77
2021/08/16 15:34:05;;;;;;;14.13;5.10;;;;;;;;;;6279096;28;20094;-73
2021/08/16 15:37:06;;;;;;;16.73;5.07;;;;;;;;;;6271497;28;20374;-76
2021/08/16 15:40:09;;;;;;;19.40;5.35;;;;;;;;;;6277091;28;20051;-78
2021/08/16 15:43:11;;;;;;;21.88;6.18;;;;;;;;;;6275868;28;20037;-74
2021/08/16 15:46:14;;;;;;;15.10;6.03;;;;;;;;;;6268179;28;20156;-74
2021/08/16 15:49:15;;;;;;;11.63;4.95;;;;;;;;;;6282395;28;20067;-72
2021/08/16 15:52:17;;;;;;;15.17;5.17;;;;;;;;;;6295065;28;20101;-73
2021/08/16 15:55:19;;;;;;;14.30;6.30;;;;;;;;;;6300056;28;21694;-76
2021/08/16 15:58:20;;;;;;;21.20;5.40;;;;;;;;;;6303139;28;20052;-73
2021/08/16 16:01:23;;;;;;;15.27;5.00;;;;;;;;;;6298593;28;20604;-72
2021/08/16 16:04:25;;;;;;;14.95;6.30;;;;;;;;;;6304548;28;20135;-73
2021/08/16 16:07:26;;;;;;;13.25;4.85;;;;;;;;;;6300786;28;20130;-73
2021/08/16 16:10:28;;;;;;;13.07;5.30;;;;;;;;;;6301911;28;20338;-75
2021/08/16 16:13:30;;;;;;;14.00;6.30;;;;;;;;;;6306963;28;20508;-76
2021/08/16 16:16:33;;;;;;;18.85;5.55;;;;;;;;;;6296900;28;20494;-79
2021/08/16 16:19:35;;;;;;;14.48;5.53;;;;;;;;;;6308163;28;20139;-73
2021/08/16 16:22:37;;;;;;;17.83;5.37;;;;;;;;;;6293081;28;20044;-73
2021/08/16 16:25:39;;;;;;;14.50;6.07;;;;;;;;;;6300011;28;20781;-72
2021/08/16 16:28:43;;;;;;;17.95;6.30;;;;;;;;;;6305978;28;20105;-73
2021/08/16 16:31:46;;;;;;;23.25;6.70;;;;;;;;;;6298989;28;20071;-73
2021/08/16 16:34:47;;;;;;;18.75;6.10;;;;;;;;;;6291062;28;20123;-72
2021/08/16 16:37:49;;;;;;;19.27;6.35;;;;;;;;;;6302446;28;20052;-73
2021/08/16 16:40:51;;;;;;;16.27;6.65;;;;;;;;;;6299092;28;20152;-72
2021/08/16 16:43:52;;;;;;;15.63;6.03;;;;;;;;;;6302242;28;20136;-71
2021/08/16 16:46:55;;;;;;;15.75;6.95;;;;;;;;;;6289623;28;20135;-76
2021/08/16 16:50:02;;;;;;;18.25;6.05;;;;;;;;;;6293241;28;20124;-75
2021/08/16 16:53:03;;;;;;;16.02;5.20;;;;;;;;;;6290965;28;20048;-72
2021/08/16 16:56:07;;;;;;;20.73;6.43;;;;;;;;;;6296426;28;20055;-72
2021/08/16 16:59:09;;;;;;;14.68;5.68;;;;;;;;;;6296929;28;20052;-74
2021/08/16 17:02:12;;;;;;;20.50;5.45;;;;;;;;;;6290699;28;20387;-71
2021/08/16 17:05:14;;;;;;;25.67;7.50;;;;;;;;;;6305004;28;20072;-74
2021/08/16 17:08:16;;;;;;;22.75;6.55;;;;;;;;;;6295615;28;20079;-73
2021/08/16 17:11:18;;;;;;;19.92;6.82;;;;;;;;;;6297315;28;20044;-71
2021/08/16 17:14:19;;;;;;;14.90;5.97;;;;;;;;;;6299121;28;20116;-71
2021/08/16 17:17:22;;;;;;;21.13;6.38;;;;;;;;;;6289072;28;20594;-75
2021/08/16 17:20:25;;;;;;;15.88;5.88;;;;;;;;;;6293981;28;20048;-75
2021/08/16 17:23:26;;;;;;;17.08;6.00;;;;;;;;;;6303284;28;20061;-75
2021/08/16 17:26:28;;;;;;;16.08;5.60;;;;;;;;;;6310609;28;20059;-72
2021/08/16 17:29:30;;;;;;;16.10;6.53;;;;;;;;;;6309384;28;20064;-72
2021/08/16 17:32:32;;;;;;;15.50;5.35;;;;;;;;;;6297715;28;20047;-75
2021/08/16 17:35:34;;;;;;;;;;;;;;;;;;6278591;28;20037;-72
2021/08/16 17:38:35;;;;;;;12.15;4.65;;;;;;;;;;6310025;28;20376;-72
2021/08/16 17:41:37;;;;;;;13.13;5.32;;;;;;;;;;6299964;28;20135;-72
2021/08/16 17:44:39;;;;;;;17.08;5.90;;;;;;;;;;6303085;28;20048;-72
2021/08/16 17:47:42;;;;;;;14.27;4.43;;;;;;;;;;6285078;28;20048;-72
2021/08/16 17:50:43;;;;;;;;;;;;;;;;;;6289902;28;20505;-72
2021/08/16 17:53:47;;;;;;;9.07;3.72;;;;;;;;;;6297229;28;20419;-75
2021/08/16 17:56:48;;;;;;;16.23;4.25;;;;;;;;;;6296093;28;20186;-72
2021/08/16 17:59:50;;;;;;;11.57;4.82;;;;;;;;;;6303996;28;20124;-73
2021/08/16 18:02:53;;;;;;;13.13;3.92;;;;;;;;;;6288989;28;20040;-72
2021/08/16 18:05:54;;;;;;;;;;;;;;;;;;6293133;28;20137;-72
2021/08/16 18:08:56;;;;;;;7.68;3.90;;;;;;;;;;6303237;28;20061;-71
2021/08/16 18:11:58;;;;;;;6.05;2.97;;;;;;;;;;6291551;28;20176;-72
2021/08/16 18:14:59;;;;;;;5.68;3.22;;;;;;;;;;6300986;28;20047;-72